Time;durP1;ratioP1;P1;durP2;ratioP2;P2;SDS_P1;SDS_P2;PMS_P1;PMS_P2;Temp;Humidity;BMP_temperature;BMP_pressure;BME280_temperature;BME280_humidity;BME280_pressure;Samples;Min_cycle;Max_cycle;Signal;HPM_P1;HPM_P2
2022/07/23 00:01:31;;;;;;;1999.90;999.90;;;18.90;99.90;;;;;;4976016;28;20184;-66
2022/07/23 00:03:57;;;;;;;1999.90;999.90;;;19.00;99.90;;;;;;4976017;28;20640;-66
2022/07/23 00:06:23;;;;;;;1999.90;999.90;;;19.00;99.90;;;;;;4979404;28;20219;-66
2022/07/23 00:08:49;;;;;;;1999.90;999.90;;;19.00;99.90;;;;;;4979980;28;20190;-66
2022/07/23 00:11:15;;;;;;;1999.90;999.90;;;18.90;99.90;;;;;;4979477;28;20531;-66
2022/07/23 00:13:41;;;;;;;1999.90;999.90;;;18.90;99.90;;;;;;4975630;28;20501;-66
2022/07/23 00:16:07;;;;;;;1999.90;999.90;;;19.00;99.90;;;;;;4975324;28;20412;-66
2022/07/23 00:18:33;;;;;;;1999.90;999.90;;;19.00;99.90;;;;;;4975678;28;20753;-66
2022/07/23 00:20:59;;;;;;;1999.90;999.90;;;19.10;99.90;;;;;;4975648;28;20421;-66
2022/07/23 00:23:28;;;;;;;1999.90;999.90;;;19.10;99.90;;;;;;4975593;28;20206;-66
2022/07/23 00:25:54;;;;;;;1999.90;999.90;;;19.10;99.90;;;;;;4978546;28;20273;-66
2022/07/23 00:28:20;;;;;;;1999.90;999.90;;;19.20;99.90;;;;;;4980500;28;20779;-66
2022/07/23 00:30:46;;;;;;;1999.90;999.90;;;19.20;99.90;;;;;;4976503;28;20564;-67
2022/07/23 00:33:11;;;;;;;1999.90;999.90;;;19.20;99.90;;;;;;4975408;28;20247;-66
2022/07/23 00:35:40;;;;;;;1999.90;999.90;;;19.20;99.90;;;;;;4975312;28;20182;-66
2022/07/23 00:38:09;;;;;;;1999.90;999.90;;;19.20;99.90;;;;;;4980532;28;20202;-65
2022/07/23 00:40:35;;;;;;;1999.90;999.90;;;19.20;99.90;;;;;;4982044;28;20405;-66
2022/07/23 00:43:01;;;;;;;1999.90;999.90;;;19.20;99.90;;;;;;4982085;28;20411;-66
2022/07/23 00:45:28;;;;;;;1999.90;999.90;;;19.20;99.90;;;;;;4982888;28;20918;-66
2022/07/23 00:47:53;;;;;;;1999.90;999.90;;;19.20;99.90;;;;;;4983012;28;20249;-65
2022/07/23 00:50:19;;;;;;;1999.90;999.90;;;19.10;99.90;;;;;;4983130;28;20409;-66
2022/07/23 00:52:45;;;;;;;1999.90;999.90;;;19.20;99.90;;;;;;4982773;28;20196;-66
2022/07/23 00:55:12;;;;;;;1999.90;999.90;;;19.20;99.90;;;;;;4982922;28;20162;-66
2022/07/23 00:57:38;;;;;;;1999.90;999.90;;;19.20;99.90;;;;;;4982155;28;20218;-66
2022/07/23 01:00:06;;;;;;;1999.90;999.90;;;19.20;99.90;;;;;;4978487;28;20402;-66
2022/07/23 01:02:32;;;;;;;1999.90;999.90;;;19.10;99.90;;;;;;4978687;28;20748;-66
2022/07/23 01:04:57;;;;;;;1999.90;999.90;;;19.10;99.90;;;;;;4977865;28;20420;-66
2022/07/23 01:07:24;;;;;;;1999.90;999.90;;;19.10;99.90;;;;;;4976252;28;20276;-66
2022/07/23 01:09:51;;;;;;;1999.90;999.90;;;19.00;99.90;;;;;;4974687;28;20198;-66
2022/07/23 01:12:17;;;;;;;1999.90;999.90;;;19.00;99.90;;;;;;4974531;28;20871;-66
2022/07/23 01:14:43;;;;;;;1999.90;999.90;;;19.00;99.90;;;;;;4976940;28;20405;-66
2022/07/23 01:17:08;;;;;;;1999.90;999.90;;;19.00;99.90;;;;;;4979115;28;20481;-66
2022/07/23 01:19:34;;;;;;;1999.90;999.90;;;18.90;99.90;;;;;;4979977;28;20532;-66
2022/07/23 01:22:03;;;;;;;1999.90;999.90;;;18.90;99.90;;;;;;4980850;28;20171;-66
2022/07/23 01:24:28;;;;;;;1999.90;999.90;;;18.90;99.90;;;;;;4980716;28;20173;-66
2022/07/23 01:26:54;;;;;;;1999.90;999.90;;;18.80;99.90;;;;;;4979998;28;20436;-66
2022/07/23 01:29:21;;;;;;;1999.90;999.90;;;18.70;99.90;;;;;;4981093;28;20184;-66
2022/07/23 01:31:47;;;;;;;1999.90;999.90;;;18.60;99.90;;;;;;4974363;28;20229;-66
2022/07/23 01:34:13;;;;;;;1999.90;999.90;;;18.60;99.90;;;;;;4974261;28;20985;-66
2022/07/23 01:36:38;;;;;;;1999.90;999.90;;;18.60;99.90;;;;;;4973856;28;20431;-66
2022/07/23 01:39:05;;;;;;;1999.90;999.90;;;18.50;99.90;;;;;;4974095;28;20651;-66
2022/07/23 01:41:31;;;;;;;1999.90;999.90;;;18.40;99.90;;;;;;4978793;28;20258;-66
2022/07/23 01:43:57;;;;;;;1999.90;999.90;;;18.40;99.90;;;;;;4979332;28;20443;-66
2022/07/23 01:46:22;;;;;;;1999.90;999.90;;;18.30;99.90;;;;;;4978165;28;20220;-66
2022/07/23 01:48:48;;;;;;;1999.90;999.90;;;18.20;99.90;;;;;;4979532;28;20190;-66
2022/07/23 01:51:14;;;;;;;1999.90;999.90;;;18.20;99.90;;;;;;4973903;28;20205;-66
2022/07/23 01:53:40;;;;;;;1999.90;999.90;;;18.20;99.90;;;;;;4973878;28;20424;-66
2022/07/23 01:56:05;;;;;;;1999.90;999.90;;;18.20;99.90;;;;;;4972853;28;20203;-66
2022/07/23 01:58:31;;;;;;;1999.90;999.90;;;18.10;99.90;;;;;;4976632;28;20648;-66
2022/07/23 02:00:57;;;;;;;1999.90;999.90;;;18.00;99.90;;;;;;4977591;28;20184;-66
2022/07/23 02:03:23;;;;;;;1999.90;999.90;;;18.00;99.90;;;;;;4978608;28;20187;-66
2022/07/23 02:05:49;;;;;;;1999.90;999.90;;;18.00;99.90;;;;;;4975616;28;20181;-66
2022/07/23 02:08:15;;;;;;;1999.90;999.90;;;18.00;99.90;;;;;;4973438;28;20425;-66
2022/07/23 02:10:41;;;;;;;1999.90;999.90;;;18.00;99.90;;;;;;4973651;28;20415;-66
2022/07/23 02:13:07;;;;;;;1999.90;999.90;;;17.90;99.90;;;;;;4973597;28;20941;-66
2022/07/23 02:15:33;;;;;;;1999.90;999.90;;;17.90;99.90;;;;;;4973583;28;20256;-66
2022/07/23 02:17:58;;;;;;;1999.90;999.90;;;17.80;99.90;;;;;;4973179;28;20438;-66
2022/07/23 02:20:24;;;;;;;1999.90;999.90;;;17.80;99.90;;;;;;4973485;28;20414;-66
2022/07/23 02:22:50;;;;;;;1999.90;999.90;;;17.80;99.90;;;;;;4973460;28;20189;-66
2022/07/23 02:25:15;;;;;;;1999.90;999.90;;;17.70;99.90;;;;;;4973396;28;20551;-66
2022/07/23 02:27:41;;;;;;;1999.90;999.90;;;17.60;99.90;;;;;;4975750;28;20693;-66
2022/07/23 02:30:08;;;;;;;1999.90;999.90;;;17.60;99.90;;;;;;4977155;28;20683;-66
2022/07/23 02:32:34;;;;;;;1999.90;999.90;;;17.50;99.90;;;;;;4973364;28;20252;-66
2022/07/23 02:34:59;;;;;;;1999.90;999.90;;;17.50;99.90;;;;;;4973253;28;20406;-66
2022/07/23 02:37:25;;;;;;;1999.90;999.90;;;17.50;99.90;;;;;;4972890;28;20429;-66
2022/07/23 02:39:51;;;;;;;1999.90;999.90;;;17.50;99.90;;;;;;4973279;28;20206;-66
2022/07/23 02:42:17;;;;;;;1999.90;999.90;;;17.50;99.90;;;;;;4973265;28;20205;-66
2022/07/23 02:44:43;;;;;;;1999.90;999.90;;;17.40;99.90;;;;;;4973288;28;20653;-66
2022/07/23 02:47:09;;;;;;;1999.90;999.90;;;17.40;99.90;;;;;;4972716;28;20501;-66
2022/07/23 02:49:34;;;;;;;1999.90;999.90;;;17.40;99.90;;;;;;4973161;28;20419;-66
2022/07/23 02:52:00;;;;;;;1999.90;999.90;;;17.40;99.90;;;;;;4974352;28;20283;-66
2022/07/23 02:54:25;;;;;;;1999.90;999.90;;;17.40;99.90;;;;;;4978186;28;20260;-66
2022/07/23 02:56:52;;;;;;;1999.90;999.90;;;17.40;99.90;;;;;;4977209;28;20284;-66
2022/07/23 02:59:18;;;;;;;1999.90;999.90;;;17.40;99.90;;;;;;4976540;28;20176;-65
2022/07/23 03:01:44;;;;;;;1999.90;999.90;;;17.30;99.90;;;;;;4977990;28;20968;-66
2022/07/23 03:04:10;;;;;;;1999.90;999.90;;;17.20;99.90;;;;;;4976776;28;20173;-65
2022/07/23 03:06:35;;;;;;;1999.90;999.90;;;17.20;99.90;;;;;;4977811;28;20455;-66
2022/07/23 03:09:02;;;;;;;1999.90;999.90;;;17.10;99.90;;;;;;4980413;28;20169;-65
2022/07/23 03:11:27;;;;;;;1999.90;999.90;;;17.10;99.90;;;;;;4980936;28;20196;-66
2022/07/23 03:13:53;;;;;;;1999.90;999.90;;;17.10;99.90;;;;;;4980336;28;20427;-66
2022/07/23 03:16:19;;;;;;;1999.90;999.90;;;17.10;99.90;;;;;;4980318;28;20190;-65
2022/07/23 03:18:44;;;;;;;1999.90;999.90;;;17.10;99.90;;;;;;4980686;28;20200;-66
2022/07/23 03:21:10;;;;;;;1999.90;999.90;;;17.00;99.90;;;;;;4980956;28;20712;-66
2022/07/23 03:23:35;;;;;;;1999.90;999.90;;;17.00;99.90;;;;;;4981417;28;20167;-66
2022/07/23 03:26:01;;;;;;;1999.90;999.90;;;16.90;99.90;;;;;;4981479;28;20183;-66
2022/07/23 03:28:27;;;;;;;1999.90;999.90;;;16.90;99.90;;;;;;4982325;28;20767;-66
2022/07/23 03:30:52;;;;;;;1999.90;999.90;;;16.90;99.90;;;;;;4981708;28;20201;-66
2022/07/23 03:33:19;;;;;;;1999.90;999.90;;;16.90;99.90;;;;;;4979536;28;20352;-66
2022/07/23 03:35:46;;;;;;;1999.90;999.90;;;16.90;99.90;;;;;;4977557;28;20189;-66
2022/07/23 03:38:12;;;;;;;1999.90;999.90;;;16.90;99.90;;;;;;4978886;28;20438;-66
2022/07/23 03:40:37;;;;;;;1999.90;999.90;;;16.80;99.90;;;;;;4979092;28;20402;-66
2022/07/23 03:43:03;;;;;;;1999.90;999.90;;;16.80;99.90;;;;;;4980200;28;20777;-66
2022/07/23 03:45:29;;;;;;;1999.90;999.90;;;16.80;99.90;;;;;;4981149;28;20182;-66
2022/07/23 03:47:55;;;;;;;1999.90;999.90;;;16.80;99.90;;;;;;4981010;28;20287;-66
2022/07/23 03:50:20;;;;;;;1999.90;999.90;;;16.70;99.90;;;;;;4981595;28;20920;-66
2022/07/23 03:52:46;;;;;;;1999.90;999.90;;;16.70;99.90;;;;;;4981689;28;20261;-66
2022/07/23 03:55:12;;;;;;;1999.90;999.90;;;16.70;99.90;;;;;;4981934;28;20177;-66
2022/07/23 03:57:37;;;;;;;1999.90;999.90;;;16.70;99.90;;;;;;4977961;28;20662;-66
2022/07/23 04:00:06;;;;;;;1999.90;999.90;;;16.70;99.90;;;;;;4976064;28;20184;-66
2022/07/23 04:02:31;;;;;;;1999.90;999.90;;;16.70;99.90;;;;;;4978492;28;20234;-65
2022/07/23 04:04:57;;;;;;;1999.90;999.90;;;16.50;99.90;;;;;;4979464;28;20451;-66
2022/07/23 04:07:23;;;;;;;1999.90;999.90;;;16.40;99.90;;;;;;4979595;28;20201;-66
2022/07/23 04:09:48;;;;;;;1999.90;999.90;;;16.40;99.90;;;;;;4980547;28;20197;-65
2022/07/23 04:12:14;;;;;;;1999.90;999.90;;;16.30;99.90;;;;;;4979647;28;20199;-67
2022/07/23 04:14:40;;;;;;;1999.90;999.90;;;16.30;99.90;;;;;;4977086;28;20725;-66
2022/07/23 04:17:06;;;;;;;1999.90;999.90;;;16.40;99.90;;;;;;4975490;28;20241;-66
2022/07/23 04:19:31;;;;;;;1999.90;999.90;;;16.40;99.90;;;;;;4975102;28;20173;-66
2022/07/23 04:21:57;;;;;;;1999.90;999.90;;;16.40;99.90;;;;;;4975833;28;20813;-66
2022/07/23 04:24:23;;;;;;;1999.90;999.90;;;16.40;99.90;;;;;;4976153;28;20171;-66
2022/07/23 04:26:49;;;;;;;1999.90;999.90;;;16.40;99.90;;;;;;4979556;28;20552;-66
2022/07/23 04:29:14;;;;;;;1999.90;999.90;;;16.50;99.90;;;;;;4977657;28;20173;-66
2022/07/23 04:31:40;;;;;;;1999.90;999.90;;;16.50;99.90;;;;;;4975346;28;20212;-67
2022/07/23 04:34:05;;;;;;;1999.90;999.90;;;16.50;99.90;;;;;;4975406;28;20197;-66
2022/07/23 04:36:31;;;;;;;1999.90;999.90;;;16.50;99.90;;;;;;4977336;28;20236;-66
2022/07/23 04:38:57;;;;;;;1999.90;999.90;;;16.50;99.90;;;;;;4980795;28;20189;-65
2022/07/23 04:41:22;;;;;;;1999.90;999.90;;;16.50;99.90;;;;;;4980220;28;20604;-66
2022/07/23 04:43:48;;;;;;;1999.90;999.90;;;16.60;99.90;;;;;;4980633;28;20173;-66
2022/07/23 04:46:14;;;;;;;1999.90;999.90;;;16.60;99.90;;;;;;4980010;28;20816;-66
2022/07/23 04:48:39;;;;;;;1999.90;999.90;;;16.70;99.90;;;;;;4980091;28;20198;-65
2022/07/23 04:51:05;;;;;;;1999.90;999.90;;;16.80;99.90;;;;;;4981465;28;20249;-65
2022/07/23 04:53:31;;;;;;;1999.90;999.90;;;16.80;99.90;;;;;;4980489;28;20904;-65
2022/07/23 04:55:57;;;;;;;1999.90;999.90;;;16.90;99.90;;;;;;4979600;28;20280;-65
2022/07/23 04:58:23;;;;;;;1999.90;999.90;;;16.90;99.90;;;;;;4978788;28;20410;-66
2022/07/23 05:00:49;;;;;;;1999.90;999.90;;;16.90;99.90;;;;;;4978557;28;20196;-65
2022/07/23 05:03:15;;;;;;;1999.90;999.90;;;17.00;99.90;;;;;;4978973;28;20175;-65
2022/07/23 05:05:41;;;;;;;1999.90;999.90;;;17.00;99.90;;;;;;4980970;28;20635;-66
2022/07/23 05:08:07;;;;;;;1999.90;999.90;;;17.00;99.90;;;;;;4979225;28;20433;-66
2022/07/23 05:10:32;;;;;;;1999.90;999.90;;;17.10;99.90;;;;;;4979172;28;20756;-66
2022/07/23 05:12:58;;;;;;;1999.90;999.90;;;17.20;99.90;;;;;;4978838;28;20300;-66
2022/07/23 05:15:24;;;;;;;1999.90;999.90;;;17.20;99.90;;;;;;4979036;28;20176;-66
2022/07/23 05:17:49;;;;;;;1999.90;999.90;;;17.20;99.90;;;;;;4978854;28;20194;-65
2022/07/23 05:20:15;;;;;;;1999.90;999.90;;;17.30;99.90;;;;;;4979003;28;20170;-66
2022/07/23 05:22:41;;;;;;;1999.90;999.90;;;17.40;99.90;;;;;;4979921;28;20174;-66
2022/07/23 05:25:07;;;;;;;1999.90;999.90;;;17.40;99.90;;;;;;4978616;28;20254;-66
2022/07/23 05:27:33;;;;;;;1999.90;999.90;;;17.50;99.90;;;;;;4976973;28;20438;-66
2022/07/23 05:29:59;;;;;;;1999.90;999.90;;;17.60;99.90;;;;;;4974006;28;20426;-66
2022/07/23 05:32:25;;;;;;;1999.90;999.90;;;17.70;99.90;;;;;;4974204;28;20455;-66
2022/07/23 05:34:50;;;;;;;1999.90;999.90;;;17.70;99.90;;;;;;4974482;28;20174;-66
2022/07/23 05:37:16;;;;;;;1999.90;999.90;;;17.90;99.90;;;;;;4973824;28;20191;-66
2022/07/23 05:39:42;;;;;;;1999.90;999.90;;;18.00;99.90;;;;;;4979588;28;20229;-66
2022/07/23 05:42:08;;;;;;;1999.90;999.90;;;18.00;99.90;;;;;;4979297;28;20418;-66
2022/07/23 05:44:34;;;;;;;1999.90;999.90;;;17.90;99.90;;;;;;4978089;28;20203;-65
2022/07/23 05:46:59;;;;;;;1999.90;999.90;;;17.90;99.90;;;;;;4978606;28;20493;-66
2022/07/23 05:49:25;;;;;;;1999.90;999.90;;;17.90;99.90;;;;;;4977743;28;20256;-66
2022/07/23 05:51:51;;;;;;;1999.90;999.90;;;17.80;99.90;;;;;;4977886;28;20208;-66
2022/07/23 05:54:16;;;;;;;1999.90;999.90;;;17.90;99.90;;;;;;4977074;28;20181;-66
2022/07/23 05:56:42;;;;;;;1999.90;999.90;;;17.90;99.90;;;;;;4977737;28;20196;-65
2022/07/23 05:59:08;;;;;;;1999.90;999.90;;;18.00;99.90;;;;;;4977391;28;20178;-65
2022/07/23 06:01:33;;;;;;;1999.90;999.90;;;18.10;99.90;;;;;;4975276;28;20181;-66
2022/07/23 06:03:59;;;;;;;1999.90;999.90;;;18.20;99.90;;;;;;4976667;28;20171;-66
2022/07/23 06:06:24;;;;;;;1999.90;999.90;;;18.30;99.90;;;;;;4977601;28;20267;-66
2022/07/23 06:08:50;;;;;;;1999.90;999.90;;;18.30;99.90;;;;;;4978082;28;20262;-65
2022/07/23 06:11:16;;;;;;;1999.90;999.90;;;18.30;99.90;;;;;;4977360;28;20221;-66
2022/07/23 06:13:41;;;;;;;1999.90;999.90;;;18.30;99.90;;;;;;4977883;28;20653;-66
2022/07/23 06:16:07;;;;;;;1999.90;999.90;;;18.40;99.90;;;;;;4977279;28;20543;-66
2022/07/23 06:18:33;;;;;;;1999.90;999.90;;;18.50;99.90;;;;;;4977623;28;20172;-65
2022/07/23 06:20:58;;;;;;;1999.90;999.90;;;18.50;99.90;;;;;;4977584;28;20189;-66
2022/07/23 06:23:24;;;;;;;1999.90;999.90;;;18.60;99.90;;;;;;4977403;28;20177;-66
2022/07/23 06:25:49;;;;;;;1999.90;999.90;;;18.60;99.90;;;;;;4978043;28;20171;-66
2022/07/23 06:28:15;;;;;;;1999.90;999.90;;;18.40;99.90;;;;;;4977425;28;20174;-67
2022/07/23 06:30:41;;;;;;;1999.90;999.90;;;18.40;99.90;;;;;;4977652;28;20196;-66
2022/07/23 06:33:07;;;;;;;1999.90;999.90;;;18.30;99.90;;;;;;4973419;28;20205;-66
2022/07/23 06:35:33;;;;;;;1999.90;999.90;;;18.20;99.90;;;;;;4973295;28;20417;-66
2022/07/23 06:37:59;;;;;;;1999.90;999.90;;;18.10;99.90;;;;;;4972942;28;20243;-66
2022/07/23 06:40:25;;;;;;;1999.90;999.90;;;18.00;99.90;;;;;;4973239;28;20834;-66
2022/07/23 06:42:50;;;;;;;1999.90;999.90;;;17.90;99.90;;;;;;4974369;28;20188;-67
2022/07/23 06:45:16;;;;;;;1999.90;999.90;;;17.80;99.90;;;;;;4977203;28;20451;-66
2022/07/23 06:47:42;;;;;;;1999.90;999.90;;;17.80;99.90;;;;;;5023947;23;20212;-68
2022/07/23 06:50:08;;;;;;;1999.90;999.90;;;17.80;99.90;;;;;;5032144;28;20172;-68
2022/07/23 06:52:34;;;;;;;1999.90;999.90;;;17.80;99.90;;;;;;5031947;28;20298;-68
2022/07/23 06:54:59;;;;;;;1999.90;999.90;;;17.90;99.90;;;;;;5031859;28;20921;-69
2022/07/23 06:57:25;;;;;;;1999.90;999.90;;;18.00;99.90;;;;;;5028796;28;20532;-68
2022/07/23 06:59:51;;;;;;;1999.90;999.90;;;18.20;99.90;;;;;;5011810;28;20182;-68
2022/07/23 07:02:17;;;;;;;1999.90;999.90;;;18.40;99.90;;;;;;5012119;28;20416;-68
2022/07/23 07:04:43;;;;;;;1999.90;999.90;;;18.60;99.90;;;;;;5012183;28;20787;-68
2022/07/23 07:07:08;;;;;;;1999.90;999.90;;;18.70;99.90;;;;;;5011671;28;20821;-68
2022/07/23 07:09:34;;;;;;;1999.90;999.90;;;18.80;99.90;;;;;;5012053;28;20182;-68
2022/07/23 07:12:00;;;;;;;1999.90;999.90;;;18.80;99.90;;;;;;5011971;28;20545;-68
2022/07/23 07:14:26;;;;;;;1999.90;999.90;;;18.80;99.90;;;;;;5011923;28;20228;-68
2022/07/23 07:16:51;;;;;;;1999.90;999.90;;;18.60;99.90;;;;;;5011738;28;20687;-67
2022/07/23 07:19:17;;;;;;;1999.90;999.90;;;18.60;99.90;;;;;;5012041;28;20182;-68
2022/07/23 07:21:42;;;;;;;1999.90;999.90;;;18.60;99.90;;;;;;5011911;28;20590;-68
2022/07/23 07:24:08;;;;;;;1999.90;999.90;;;18.80;99.90;;;;;;5011877;28;20175;-68
2022/07/23 07:26:34;;;;;;;1999.90;999.90;;;18.90;99.90;;;;;;5011641;28;20172;-68
2022/07/23 07:28:59;;;;;;;1999.90;999.90;;;19.00;99.90;;;;;;5011769;28;20190;-68
2022/07/23 07:31:25;;;;;;;1999.90;999.90;;;19.20;99.90;;;;;;5011772;28;20204;-68
2022/07/23 07:33:51;;;;;;;1999.90;999.90;;;19.20;99.90;;;;;;5011741;28;20221;-68
2022/07/23 07:36:16;;;;;;;1999.90;999.90;;;19.30;99.90;;;;;;5011481;28;20167;-68
2022/07/23 07:38:42;;;;;;;1999.90;999.90;;;19.40;99.90;;;;;;5011670;28;20424;-68
2022/07/23 07:41:09;;;;;;;1999.90;999.90;;;19.40;99.90;;;;;;5009277;28;20719;-68
2022/07/23 07:43:35;;;;;;;1999.90;999.90;;;19.40;99.90;;;;;;5004017;28;20659;-69
2022/07/23 07:46:02;;;;;;;1999.90;999.90;;;19.50;99.90;;;;;;5011344;28;20416;-68
2022/07/23 07:48:27;;;;;;;1999.90;999.90;;;19.50;99.90;;;;;;5011136;28;20459;-68
2022/07/23 07:50:53;;;;;;;1999.90;999.90;;;19.40;99.90;;;;;;5011265;28;20409;-68
2022/07/23 07:53:18;;;;;;;1999.90;999.90;;;19.40;99.90;;;;;;5012501;28;20299;-69
2022/07/23 07:55:44;;;;;;;1999.90;999.90;;;19.40;99.90;;;;;;5012979;28;20215;-71
2022/07/23 07:58:10;;;;;;;1999.90;999.90;;;19.40;99.90;;;;;;5013520;28;20195;-67
2022/07/23 08:00:35;;;;;;;1999.90;999.90;;;19.50;99.90;;;;;;5014800;28;20170;-68
2022/07/23 08:03:01;;;;;;;1999.90;999.90;;;19.80;99.90;;;;;;5014855;28;20526;-71
2022/07/23 08:05:28;;;;;;;1999.90;999.90;;;20.00;99.90;;;;;;5013966;28;20214;-67
2022/07/23 08:07:58;;;;;;;1999.90;999.90;;;20.20;99.90;;;;;;5014257;28;20199;-67
2022/07/23 08:10:25;;;;;;;1999.90;999.90;;;20.30;99.90;;;;;;5014427;28;20406;-68
2022/07/23 08:12:53;;;;;;;1999.90;999.90;;;20.40;99.90;;;;;;5013940;28;20489;-69
2022/07/23 08:15:20;;;;;;;1999.90;999.90;;;20.50;99.90;;;;;;5014550;28;20947;-71
2022/07/23 08:17:47;;;;;;;1999.90;999.90;;;20.50;99.90;;;;;;5014076;28;20794;-69
2022/07/23 08:20:14;;;;;;;1999.90;999.90;;;20.50;99.90;;;;;;5013866;28;20458;-70
2022/07/23 08:22:48;;;;;;;1999.90;999.90;;;20.60;99.90;;;;;;5014280;28;20418;-70
2022/07/23 08:25:15;;;;;;;1999.90;999.90;;;20.80;99.90;;;;;;5014255;28;20500;-69
2022/07/23 08:27:41;;;;;;;1999.90;999.90;;;20.80;99.90;;;;;;5013613;28;20447;-68
2022/07/23 08:30:08;;;;;;;1999.90;999.90;;;21.00;99.90;;;;;;5014174;28;20875;-68
2022/07/23 08:32:33;;;;;;;1999.90;999.90;;;21.10;99.90;;;;;;5013086;28;20509;-68
2022/07/23 08:34:59;;;;;;;1999.90;999.90;;;21.30;99.90;;;;;;5013661;28;20405;-68
2022/07/23 08:37:24;;;;;;;1999.90;999.90;;;21.50;99.90;;;;;;5013772;28;20178;-68
2022/07/23 08:39:50;;;;;;;1999.90;999.90;;;21.50;99.90;;;;;;5013957;28;20172;-69
2022/07/23 08:42:16;;;;;;;1999.90;999.90;;;21.50;99.90;;;;;;5013577;28;20254;-67
2022/07/23 08:44:45;;;;;;;1999.90;999.90;;;21.40;99.90;;;;;;5013933;28;20165;-68
2022/07/23 08:47:12;;;;;;;1999.90;999.90;;;21.50;99.90;;;;;;5013474;28;20177;-68
2022/07/23 08:49:38;;;;;;;1999.90;999.90;;;21.50;99.90;;;;;;5013547;28;20416;-68
2022/07/23 08:52:04;;;;;;;1999.90;999.90;;;21.60;99.90;;;;;;5010844;28;20453;-67
2022/07/23 08:54:31;;;;;;;1999.90;999.90;;;21.70;99.90;;;;;;5012527;28;20993;-68
2022/07/23 08:56:57;;;;;;;1999.90;999.90;;;21.90;99.90;;;;;;5011950;28;20406;-67
2022/07/23 08:59:23;;;;;;;1999.90;999.90;;;22.10;99.90;;;;;;5012422;28;20762;-67
2022/07/23 09:01:49;;;;;;;1999.90;999.90;;;22.10;99.90;;;;;;5012005;28;20231;-68
2022/07/23 09:04:14;;;;;;;1999.90;999.90;;;22.20;99.90;;;;;;5012534;28;20730;-68
2022/07/23 09:06:40;;;;;;;1999.90;999.90;;;22.20;99.90;;;;;;5012900;28;20173;-68
2022/07/23 09:09:20;;;;;;;1999.90;999.90;;;22.30;99.90;;;;;;5012305;28;20286;-68
2022/07/23 09:12:08;;;;;;;1999.90;999.90;;;22.20;99.90;;;;;;5012611;28;20286;-68
2022/07/23 09:14:42;;;;;;;1999.90;999.90;;;22.30;99.90;;;;;;5013018;28;20391;-68
2022/07/23 09:17:12;;;;;;;1999.90;999.90;;;22.60;99.90;;;;;;5012055;28;20496;-69
2022/07/23 09:19:39;;;;;;;1999.90;999.90;;;22.60;99.90;;;;;;5012263;28;20469;-67
2022/07/23 09:22:18;;;;;;;1999.90;999.90;;;22.40;99.90;;;;;;5012636;28;20384;-69
2022/07/23 09:25:22;;;;;;;1999.90;999.90;;;22.20;99.90;;;;;;5012375;28;20484;-68
2022/07/23 09:28:02;;;;;;;1999.90;999.90;;;22.30;99.90;;;;;;4932210;29;20444;-67
2022/07/23 09:30:30;;;;;;;1999.90;999.90;;;22.50;99.90;;;;;;4932271;29;20926;-68
2022/07/23 09:33:12;;;;;;;1999.90;999.90;;;22.50;99.90;;;;;;4978113;28;20829;-67
2022/07/23 09:35:44;;;;;;;1999.90;999.90;;;22.40;99.90;;;;;;5011821;28;20441;-68
2022/07/23 09:38:10;;;;;;;1999.90;999.90;;;22.50;99.90;;;;;;5011899;28;20460;-67
2022/07/23 09:40:35;;;;;;;1999.90;999.90;;;22.80;99.90;;;;;;5012042;28;20439;-67
2022/07/23 09:43:01;;;;;;;1999.90;999.90;;;23.10;99.90;;;;;;5012303;28;20717;-68
2022/07/23 09:45:27;;;;;;;1999.90;999.90;;;23.30;99.90;;;;;;5012601;28;20557;-68
2022/07/23 09:48:16;;;;;;;1999.90;999.90;;;23.40;99.90;;;;;;5011286;28;20235;-68
2022/07/23 09:50:44;;;;;;;1999.90;999.90;;;23.40;99.90;;;;;;5011802;28;20209;-69
2022/07/23 09:53:23;;;;;;;1999.90;999.90;;;23.40;99.90;;;;;;5012341;28;20900;-68
2022/07/23 09:55:49;;;;;;;1999.90;999.90;;;23.30;99.90;;;;;;5011743;28;20882;-70
2022/07/23 09:58:15;;;;;;;1999.90;999.90;;;23.40;99.90;;;;;;5011770;28;20400;-69
2022/07/23 10:00:42;;;;;;;1999.90;999.90;;;23.40;99.90;;;;;;5012131;28;20184;-69
2022/07/23 10:03:09;;;;;;;1999.90;999.90;;;23.50;99.90;;;;;;5011417;28;20472;-68
2022/07/23 10:05:36;;;;;;;1999.90;999.90;;;23.60;99.90;;;;;;5011700;28;20403;-70
2022/07/23 10:08:02;;;;;;;1999.90;999.90;;;23.70;99.90;;;;;;5010934;28;20832;-67
2022/07/23 10:10:30;;;;;;;1999.90;999.90;;;23.90;99.90;;;;;;5011580;28;20408;-67
2022/07/23 10:15:57;;;;;;;1999.90;999.90;;;23.90;99.90;;;;;;4988414;28;20818;-68
2022/07/23 10:18:24;;;;;;;1999.90;999.90;;;23.50;99.90;;;;;;5006060;28;20424;-68
2022/07/23 10:20:50;;;;;;;1999.90;999.90;;;23.70;99.90;;;;;;5011612;28;20173;-69
2022/07/23 10:23:24;;;;;;;1999.90;999.90;;;23.80;99.90;;;;;;5011930;28;20407;-67
2022/07/23 10:26:27;;;;;;;1999.90;999.90;;;23.50;99.90;;;;;;5011355;28;20462;-68
2022/07/23 10:29:28;;;;;;;1999.90;999.90;;;23.70;99.90;;;;;;5008356;28;20798;-68
2022/07/23 10:32:08;;;;;;;1999.90;999.90;;;24.00;99.90;;;;;;4981087;28;20459;-69
2022/07/23 10:34:54;;;;;;;1999.90;999.90;;;24.30;99.90;;;;;;5011612;28;20453;-68
2022/07/23 10:37:32;;;;;;;1999.90;999.90;;;24.50;99.90;;;;;;5011301;28;20420;-68
2022/07/23 10:40:14;;;;;;;1999.90;999.90;;;24.80;99.90;;;;;;5011143;28;20445;-68
2022/07/23 10:42:41;;;;;;;1999.90;999.90;;;25.10;99.90;;;;;;5011361;28;20396;-69
2022/07/23 10:45:34;;;;;;;1999.90;999.90;;;25.20;99.90;;;;;;5011684;28;20391;-70
2022/07/23 10:48:15;;;;;;;1999.90;999.90;;;25.20;99.90;;;;;;5010596;28;20458;-69
2022/07/23 10:50:43;;;;;;;1999.90;999.90;;;25.40;99.90;;;;;;5011514;28;20387;-69
2022/07/23 10:53:15;;;;;;;1999.90;999.90;;;25.50;99.90;;;;;;5011211;28;20890;-69
2022/07/23 10:55:48;;;;;;;1999.90;999.90;;;25.80;99.90;;;;;;5011062;28;20382;-69
2022/07/23 10:58:19;;;;;;;1999.90;999.90;;;26.00;99.90;;;;;;5011115;28;20428;-70
2022/07/23 11:00:44;;;;;;;1999.90;999.90;;;26.30;99.90;;;;;;5011370;28;20375;-69
2022/07/23 11:03:37;;;;;;;1999.90;999.90;;;26.50;99.90;;;;;;5011196;28;20681;-69
2022/07/23 11:06:04;;;;;;;1999.90;999.90;;;26.80;99.90;;;;;;5007704;28;20193;-69
2022/07/23 11:08:30;;;;;;;1999.90;999.90;;;27.00;99.90;;;;;;5010668;28;20494;-70
2022/07/23 11:11:01;;;;;;;1999.90;999.90;;;27.20;99.90;;;;;;5011206;28;20426;-69
2022/07/23 11:13:28;;;;;;;1999.90;999.90;;;26.80;99.90;;;;;;5011228;28;20552;-69
2022/07/23 11:16:05;;;;;;;1999.90;999.90;;;26.80;99.90;;;;;;5010612;28;20412;-68
2022/07/23 11:18:40;;;;;;;1999.90;999.90;;;26.70;99.90;;;;;;5011022;28;20806;-68
2022/07/23 11:21:30;;;;;;;1999.90;999.90;;;26.80;99.90;;;;;;5011088;28;20407;-69
2022/07/23 11:24:00;;;;;;;1999.90;999.90;;;26.80;99.90;;;;;;5011057;28;20408;-69
2022/07/23 11:26:43;;;;;;;1999.90;999.90;;;26.80;99.90;;;;;;5010742;28;20382;-69
2022/07/23 11:29:27;;;;;;;1999.90;999.90;;;26.70;99.90;;;;;;5014763;28;20488;-69
2022/07/23 11:31:57;;;;;;;1999.90;999.90;;;26.30;99.90;;;;;;5014348;28;20429;-69
2022/07/23 11:34:34;;;;;;;1999.90;999.90;;;26.10;99.90;;;;;;5014809;28;20848;-69
2022/07/23 11:37:01;;;;;;;1999.90;999.90;;;26.50;99.90;;;;;;5014383;28;20411;-69
2022/07/23 11:39:28;;;;;;;1999.90;999.90;;;26.90;99.90;;;;;;5014280;28;20449;-69
2022/07/23 11:41:55;;;;;;;1999.90;999.90;;;26.90;99.90;;;;;;5014692;28;20751;-69
2022/07/23 11:44:28;;;;;;;1999.90;999.90;;;27.20;98.40;;;;;;5014751;28;20399;-69
2022/07/23 11:47:06;;;;;;;1999.90;999.90;;;27.50;97.70;;;;;;5014057;28;20408;-69
2022/07/23 11:49:32;;;;;;;1999.90;999.90;;;27.60;99.70;;;;;;5014096;28;20831;-69
2022/07/23 11:52:12;;;;;;;1999.90;999.90;;;27.30;95.40;;;;;;5014219;28;20447;-69
2022/07/23 11:54:54;;;;;;;1999.90;999.90;;;27.10;97.20;;;;;;5014142;28;20466;-69
2022/07/23 11:57:24;;;;;;;1999.90;999.90;;;27.30;94.10;;;;;;5014038;28;20383;-69
2022/07/23 11:59:57;;;;;;;1999.90;999.90;;;27.40;93.90;;;;;;5013740;28;20402;-69
2022/07/23 12:02:23;;;;;;;1999.90;999.90;;;27.70;94.20;;;;;;5014471;28;20781;-69
2022/07/23 12:04:51;;;;;;;1999.90;999.90;;;28.00;99.40;;;;;;5014195;28;20420;-69